AIC24L VIDP-YSSY
Flight info
| Callsign | AIC24L |
|---|---|
| Flight time | N/A |
| Altitude | 35000 |
| Route | ITBAN7G ITBAN L759 PUT B579 VPL W531 VIH A464 VKL Y507 MAKNA Y511 TOPOR A464 ARAMA P501 ANITO B470 PKP L511 SBR M766 BLI M635 ATMAP A576 APOMA Y52 VELGI Y105 TARAL Y59 RIVET |
| Aircraft | B789/H-SDE1E2E3FGHIJ2J3J4J5M1RWXY/LB1D1 |
Departure
| Time | 2026-05-06 09:34 |
|---|---|
| Airport | Indira Gandhi International Airport (VIDP) |
Arrival
| Time | N/A |
|---|---|
| Airport | Sydney Kingsford Smith International Airport (YSSY) |
| Time | Latitude | Longitude | Altitude | Speed | Heading |
|---|---|---|---|---|---|
| 2026-05-06 08:45 | 28.55356 | 77.07922 | 742 ft | 0 kts | 330° |
| 2026-05-06 09:19 | 28.55347 | 77.07928 | 742 ft | 2 kts | 330° |
| 2026-05-06 09:19 | 28.55335 | 77.07935 | 742 ft | 2 kts | 330° |
| 2026-05-06 09:19 | 28.55323 | 77.07943 | 742 ft | 2 kts | 330° |
| 2026-05-06 09:20 | 28.55312 | 77.07950 | 742 ft | 2 kts | 317° |
| 2026-05-06 09:20 | 28.55304 | 77.07962 | 742 ft | 2 kts | 289° |
| 2026-05-06 09:20 | 28.55301 | 77.07977 | 743 ft | 2 kts | 270° |
| 2026-05-06 09:20 | 28.55302 | 77.07992 | 743 ft | 2 kts | 242° |
| 2026-05-06 09:21 | 28.55303 | 77.07994 | 743 ft | 0 kts | 241° |
| 2026-05-06 09:25 | 28.55302 | 77.07993 | 747 ft | 1 kts | 241° |
| 2026-05-06 09:25 | 28.55297 | 77.07981 | 743 ft | 2 kts | 241° |
| 2026-05-06 09:26 | 28.55286 | 77.07959 | 743 ft | 4 kts | 241° |
| 2026-05-06 09:26 | 28.55271 | 77.07927 | 742 ft | 5 kts | 241° |
| 2026-05-06 09:26 | 28.55251 | 77.07886 | 743 ft | 7 kts | 241° |
| 2026-05-06 09:26 | 28.55241 | 77.07846 | 745 ft | 2 kts | 283° |
| 2026-05-06 09:27 | 28.55248 | 77.07824 | 743 ft | 4 kts | 289° |
| 2026-05-06 09:27 | 28.55261 | 77.07780 | 742 ft | 8 kts | 289° |
| 2026-05-06 09:27 | 28.55274 | 77.07708 | 743 ft | 10 kts | 264° |
| 2026-05-06 09:27 | 28.55227 | 77.07654 | 741 ft | 11 kts | 202° |
| 2026-05-06 09:28 | 28.55173 | 77.07601 | 741 ft | 10 kts | 259° |
| 2026-05-06 09:28 | 28.55189 | 77.07513 | 740 ft | 13 kts | 287° |
| 2026-05-06 09:28 | 28.55215 | 77.07400 | 739 ft | 16 kts | 284° |
| 2026-05-06 09:28 | 28.55246 | 77.07265 | 740 ft | 19 kts | 284° |
| 2026-05-06 09:29 | 28.55279 | 77.07117 | 738 ft | 19 kts | 284° |
| 2026-05-06 09:29 | 28.55310 | 77.06981 | 737 ft | 14 kts | 279° |
| 2026-05-06 09:29 | 28.55268 | 77.06904 | 736 ft | 11 kts | 198° |
| 2026-05-06 09:29 | 28.55197 | 77.06885 | 738 ft | 10 kts | 193° |
| 2026-05-06 09:30 | 28.55123 | 77.06864 | 736 ft | 13 kts | 194° |
| 2026-05-06 09:30 | 28.55031 | 77.06838 | 734 ft | 14 kts | 194° |
| 2026-05-06 09:30 | 28.54944 | 77.06813 | 736 ft | 12 kts | 194° |
| 2026-05-06 09:30 | 28.54878 | 77.06790 | 735 ft | 3 kts | 218° |
| 2026-05-06 09:31 | 28.54861 | 77.06756 | 734 ft | 8 kts | 259° |
| 2026-05-06 09:31 | 28.54868 | 77.06663 | 735 ft | 14 kts | 282° |
| 2026-05-06 09:31 | 28.54890 | 77.06564 | 734 ft | 12 kts | 275° |
| 2026-05-06 09:31 | 28.54861 | 77.06506 | 736 ft | 8 kts | 212° |
| 2026-05-06 09:32 | 28.54800 | 77.06496 | 735 ft | 10 kts | 168° |
| 2026-05-06 09:32 | 28.54734 | 77.06536 | 734 ft | 12 kts | 139° |
| 2026-05-06 09:32 | 28.54705 | 77.06616 | 736 ft | 6 kts | 102° |
| 2026-05-06 09:32 | 28.54704 | 77.06617 | 736 ft | 0 kts | 102° |
| 2026-05-06 09:33 | 28.54702 | 77.06629 | 736 ft | 4 kts | 102° |
| 2026-05-06 09:33 | 28.54668 | 77.06793 | 739 ft | 49 kts | 103° |
| 2026-05-06 09:34 | 28.54534 | 77.07420 | 743 ft | 113 kts | 104° |
| 2026-05-06 09:34 | 28.54303 | 77.08505 | 763 ft | 168 kts | 103° |
| 2026-05-06 09:34 | 28.53989 | 77.09955 | 807 ft | 211 kts | 104° |
| 2026-05-06 09:34 | 28.53620 | 77.11550 | 1594 ft | 206 kts | 105° |
| 2026-05-06 09:35 | 28.53250 | 77.13193 | 2344 ft | 219 kts | 102° |
| 2026-05-06 09:35 | 28.52873 | 77.14859 | 3186 ft | 220 kts | 104° |
| 2026-05-06 09:35 | 28.52470 | 77.16621 | 3670 ft | 238 kts | 104° |
| 2026-05-06 09:35 | 28.51601 | 77.18168 | 4417 ft | 238 kts | 146° |
| 2026-05-06 09:36 | 28.49986 | 77.18777 | 4719 ft | 261 kts | 182° |
| 2026-05-06 09:36 | 28.48182 | 77.18362 | 5308 ft | 268 kts | 202° |
| 2026-05-06 09:36 | 28.46507 | 77.17522 | 6249 ft | 262 kts | 208° |
| 2026-05-06 09:36 | 28.44828 | 77.16611 | 6766 ft | 274 kts | 208° |
| 2026-05-06 09:37 | 28.43081 | 77.15659 | 7345 ft | 282 kts | 208° |
| 2026-05-06 09:37 | 28.41202 | 77.14758 | 7269 ft | 298 kts | 198° |
| 2026-05-06 09:37 | 28.39182 | 77.14388 | 7136 ft | 293 kts | 182° |
| 2026-05-06 09:37 | 28.37146 | 77.14529 | 7028 ft | 293 kts | 175° |
| 2026-05-06 09:38 | 28.35124 | 77.14813 | 6908 ft | 292 kts | 174° |
| 2026-05-06 09:38 | 28.33112 | 77.15022 | 6821 ft | 288 kts | 178° |
| 2026-05-06 09:38 | 28.31138 | 77.15117 | 6821 ft | 287 kts | 179° |
| 2026-05-06 09:38 | 28.29140 | 77.15201 | 6818 ft | 287 kts | 181° |
| 2026-05-06 09:39 | 28.27142 | 77.14957 | 7040 ft | 291 kts | 189° |
| 2026-05-06 09:39 | 28.25141 | 77.14688 | 7814 ft | 291 kts | 189° |
| 2026-05-06 09:39 | 28.23117 | 77.14410 | 8473 ft | 295 kts | 189° |
| 2026-05-06 09:39 | 28.21066 | 77.14112 | 9141 ft | 299 kts | 190° |
| 2026-05-06 09:40 | 28.18980 | 77.13809 | 9792 ft | 304 kts | 190° |
| 2026-05-06 09:40 | 28.16866 | 77.13507 | 10384 ft | 307 kts | 190° |
| 2026-05-06 09:40 | 28.12570 | 77.12894 | 11557 ft | 314 kts | 191° |
| 2026-05-06 09:41 | 28.10397 | 77.12582 | 12149 ft | 321 kts | 191° |
| 2026-05-06 09:41 | 28.08158 | 77.12291 | 12746 ft | 331 kts | 185° |
| 2026-05-06 09:41 | 28.05856 | 77.12755 | 12829 ft | 345 kts | 157° |
| 2026-05-06 09:41 | 28.03872 | 77.14272 | 12846 ft | 351 kts | 131° |
| 2026-05-06 09:42 | 28.02511 | 77.16649 | 12866 ft | 373 kts | 112° |
| 2026-05-06 09:42 | 28.01436 | 77.19397 | 12840 ft | 385 kts | 110° |
| 2026-05-06 09:42 | 28.00403 | 77.22198 | 12835 ft | 387 kts | 111° |
| 2026-05-06 09:42 | 27.99336 | 77.24989 | 12831 ft | 387 kts | 112° |
| 2026-05-06 09:43 | 27.98240 | 77.27757 | 12826 ft | 385 kts | 112° |
| 2026-05-06 09:43 | 27.97158 | 77.30520 | 12830 ft | 384 kts | 111° |
| 2026-05-06 09:43 | 27.96449 | 77.32356 | 12823 ft | 384 kts | 111° |
| 2026-05-06 09:43 | 27.95378 | 77.35135 | 12939 ft | 388 kts | 111° |
| 2026-05-06 09:44 | 27.94294 | 77.37920 | 13760 ft | 388 kts | 111° |
| 2026-05-06 09:44 | 27.93200 | 77.40721 | 14439 ft | 391 kts | 111° |
| 2026-05-06 09:44 | 27.92099 | 77.43547 | 15116 ft | 395 kts | 111° |
| 2026-05-06 09:44 | 27.91046 | 77.46431 | 15749 ft | 397 kts | 106° |
| 2026-05-06 09:45 | 27.90122 | 77.49391 | 16353 ft | 401 kts | 109° |
| 2026-05-06 09:45 | 27.89103 | 77.52345 | 16986 ft | 405 kts | 109° |
| 2026-05-06 09:45 | 27.88097 | 77.55336 | 17612 ft | 409 kts | 108° |
| 2026-05-06 09:45 | 27.87123 | 77.58367 | 18209 ft | 412 kts | 108° |
| 2026-05-06 09:46 | 27.86133 | 77.61426 | 18725 ft | 417 kts | 108° |
| 2026-05-06 09:46 | 27.85110 | 77.64514 | 19235 ft | 420 kts | 109° |
| 2026-05-06 09:46 | 27.84078 | 77.67620 | 19745 ft | 424 kts | 109° |
| 2026-05-06 09:46 | 27.82700 | 77.70580 | 20233 ft | 430 kts | 126° |
| 2026-05-06 09:47 | 27.80673 | 77.73076 | 20707 ft | 434 kts | 142° |
| 2026-05-06 09:47 | 27.78253 | 77.75142 | 21106 ft | 439 kts | 144° |
| 2026-05-06 09:47 | 27.75767 | 77.77157 | 21595 ft | 441 kts | 145° |
| 2026-05-06 09:47 | 27.73167 | 77.79030 | 22028 ft | 443 kts | 157° |
| 2026-05-06 09:48 | 27.70312 | 77.80204 | 22465 ft | 443 kts | 169° |
| 2026-05-06 09:48 | 27.67299 | 77.81058 | 22863 ft | 447 kts | 168° |
| 2026-05-06 09:48 | 27.64266 | 77.81916 | 23325 ft | 450 kts | 168° |
| 2026-05-06 09:48 | 27.61214 | 77.82780 | 23686 ft | 454 kts | 168° |
| 2026-05-06 09:49 | 27.58139 | 77.83655 | 24072 ft | 456 kts | 168° |
| 2026-05-06 09:49 | 27.55060 | 77.84532 | 24441 ft | 459 kts | 168° |
| 2026-05-06 09:49 | 27.51947 | 77.85415 | 24741 ft | 463 kts | 169° |
| 2026-05-06 09:49 | 27.48821 | 77.86299 | 25096 ft | 465 kts | 169° |
| 2026-05-06 09:50 | 27.45675 | 77.87192 | 25448 ft | 467 kts | 169° |
| 2026-05-06 09:50 | 27.42512 | 77.88089 | 25806 ft | 470 kts | 169° |
| 2026-05-06 09:50 | 27.39327 | 77.88990 | 26154 ft | 472 kts | 169° |
| 2026-05-06 09:50 | 27.36132 | 77.89893 | 26490 ft | 474 kts | 169° |
| 2026-05-06 09:51 | 27.32922 | 77.90801 | 26829 ft | 477 kts | 169° |
| 2026-05-06 09:51 | 27.29697 | 77.91713 | 27165 ft | 479 kts | 169° |
| 2026-05-06 09:51 | 27.26457 | 77.92628 | 27493 ft | 481 kts | 170° |
| 2026-05-06 09:51 | 27.23201 | 77.93547 | 27778 ft | 484 kts | 170° |
| 2026-05-06 09:52 | 27.19926 | 77.94470 | 28086 ft | 486 kts | 170° |
| 2026-05-06 09:52 | 27.16685 | 77.95619 | 28393 ft | 493 kts | 159° |
| 2026-05-06 09:52 | 27.13693 | 77.97453 | 28770 ft | 499 kts | 147° |
| 2026-05-06 09:52 | 27.10898 | 77.99795 | 28980 ft | 504 kts | 145° |
| 2026-05-06 09:53 | 27.08080 | 78.02233 | 29295 ft | 506 kts | 145° |
| 2026-05-06 09:53 | 27.05293 | 78.04655 | 29567 ft | 508 kts | 145° |
| 2026-05-06 09:53 | 27.02482 | 78.07069 | 29838 ft | 510 kts | 146° |
| 2026-05-06 09:53 | 26.99654 | 78.09486 | 30063 ft | 512 kts | 146° |
| 2026-05-06 09:54 | 26.96818 | 78.11921 | 30258 ft | 515 kts | 145° |
| 2026-05-06 09:54 | 26.93969 | 78.14375 | 30415 ft | 518 kts | 145° |
| 2026-05-06 09:54 | 26.91104 | 78.16835 | 30646 ft | 520 kts | 146° |
| 2026-05-06 09:54 | 26.88225 | 78.19299 | 30834 ft | 522 kts | 146° |
| 2026-05-06 09:55 | 26.85335 | 78.21773 | 31060 ft | 524 kts | 146° |
| 2026-05-06 09:55 | 26.82435 | 78.24258 | 31269 ft | 526 kts | 146° |
| 2026-05-06 09:55 | 26.79524 | 78.26751 | 31451 ft | 528 kts | 146° |
| 2026-05-06 09:55 | 26.76601 | 78.29250 | 31644 ft | 530 kts | 146° |
| 2026-05-06 09:56 | 26.73667 | 78.31755 | 31834 ft | 531 kts | 146° |
| 2026-05-06 09:56 | 26.70724 | 78.34269 | 32028 ft | 533 kts | 146° |
| 2026-05-06 09:56 | 26.67770 | 78.36790 | 32181 ft | 535 kts | 146° |
| 2026-05-06 09:56 | 26.64813 | 78.39312 | 32365 ft | 537 kts | 146° |
| 2026-05-06 09:57 | 26.61834 | 78.41851 | 32542 ft | 538 kts | 146° |
| 2026-05-06 09:57 | 26.58853 | 78.44389 | 32717 ft | 539 kts | 146° |
| 2026-05-06 09:57 | 26.55904 | 78.46900 | 32873 ft | 541 kts | 146° |
| 2026-05-06 09:57 | 26.52905 | 78.49450 | 33037 ft | 542 kts | 146° |
| 2026-05-06 09:58 | 26.49898 | 78.52005 | 33203 ft | 544 kts | 146° |
| 2026-05-06 09:58 | 26.46849 | 78.54595 | 33363 ft | 545 kts | 146° |
| 2026-05-06 09:58 | 26.43818 | 78.57168 | 33509 ft | 547 kts | 146° |
| 2026-05-06 09:58 | 26.40826 | 78.59706 | 33618 ft | 548 kts | 146° |
| 2026-05-06 09:59 | 26.37795 | 78.62276 | 33869 ft | 547 kts | 147° |
| 2026-05-06 09:59 | 26.34761 | 78.64846 | 33976 ft | 548 kts | 147° |
| 2026-05-06 09:59 | 26.31700 | 78.67436 | 34107 ft | 549 kts | 147° |
| 2026-05-06 09:59 | 26.28656 | 78.70011 | 34280 ft | 549 kts | 147° |
| 2026-05-06 10:00 | 26.25619 | 78.72579 | 34482 ft | 548 kts | 147° |
| 2026-05-06 10:00 | 26.22617 | 78.75115 | 34649 ft | 547 kts | 147° |
| 2026-05-06 10:00 | 26.19583 | 78.77676 | 34822 ft | 547 kts | 147° |
| 2026-05-06 10:00 | 26.16510 | 78.80268 | 34854 ft | 550 kts | 147° |
| 2026-05-06 10:01 | 26.10434 | 78.85337 | 34847 ft | 545 kts | 148° |
| 2026-05-06 10:01 | 26.04341 | 78.90327 | 34839 ft | 543 kts | 148° |
| 2026-05-06 10:02 | 25.98248 | 78.95374 | 34838 ft | 543 kts | 148° |
| 2026-05-06 10:02 | 25.92164 | 79.00364 | 34832 ft | 544 kts | 148° |
| 2026-05-06 10:03 | 25.86084 | 79.05372 | 34836 ft | 545 kts | 148° |
| 2026-05-06 10:03 | 25.80045 | 79.10325 | 34828 ft | 541 kts | 148° |
| 2026-05-06 10:04 | 25.74006 | 79.15278 | 34818 ft | 539 kts | 148° |
| 2026-05-06 10:04 | 25.67956 | 79.20230 | 34818 ft | 541 kts | 148° |
| 2026-05-06 10:05 | 25.61896 | 79.25186 | 34818 ft | 540 kts | 148° |
| 2026-05-06 10:05 | 25.55856 | 79.30119 | 34808 ft | 539 kts | 148° |
| 2026-05-06 10:06 | 25.49823 | 79.35039 | 34810 ft | 538 kts | 148° |
| 2026-05-06 10:06 | 25.43793 | 79.39951 | 34809 ft | 538 kts | 149° |
| 2026-05-06 10:07 | 25.37756 | 79.44863 | 34810 ft | 537 kts | 149° |
| 2026-05-06 10:07 | 25.31752 | 79.49741 | 34810 ft | 536 kts | 149° |
| 2026-05-06 10:08 | 25.25739 | 79.54620 | 34784 ft | 536 kts | 149° |
| 2026-05-06 10:08 | 25.19729 | 79.59492 | 34792 ft | 536 kts | 149° |
| 2026-05-06 10:09 | 25.13738 | 79.64341 | 34798 ft | 537 kts | 149° |
| 2026-05-06 10:09 | 25.07687 | 79.69233 | 34802 ft | 538 kts | 149° |
| 2026-05-06 10:10 | 25.01650 | 79.74108 | 34799 ft | 538 kts | 149° |
| 2026-05-06 10:10 | 24.95611 | 79.78979 | 34802 ft | 537 kts | 149° |
| 2026-05-06 10:11 | 24.89588 | 79.83830 | 34805 ft | 535 kts | 149° |
| 2026-05-06 10:11 | 24.83576 | 79.88666 | 34804 ft | 534 kts | 149° |
| 2026-05-06 10:12 | 24.78109 | 79.94201 | 34834 ft | 545 kts | 133° |
| 2026-05-06 10:12 | 24.73252 | 80.00645 | 34811 ft | 547 kts | 134° |
| 2026-05-06 10:13 | 24.68389 | 80.07087 | 34778 ft | 546 kts | 134° |
| 2026-05-06 10:13 | 24.63530 | 80.13513 | 34800 ft | 547 kts | 134° |
| 2026-05-06 10:14 | 24.58667 | 80.19936 | 34773 ft | 546 kts | 134° |
| 2026-05-06 10:14 | 24.53811 | 80.26342 | 34773 ft | 544 kts | 134° |
| 2026-05-06 10:15 | 24.48966 | 80.32723 | 34777 ft | 544 kts | 134° |
| 2026-05-06 10:15 | 24.44107 | 80.39115 | 34789 ft | 546 kts | 134° |
| 2026-05-06 10:16 | 24.39233 | 80.45519 | 34772 ft | 547 kts | 134° |
| 2026-05-06 10:16 | 24.34349 | 80.51927 | 34784 ft | 548 kts | 134° |
| 2026-05-06 10:17 | 24.29486 | 80.58300 | 34793 ft | 547 kts | 134° |
| 2026-05-06 10:17 | 24.24599 | 80.64695 | 34790 ft | 547 kts | 134° |
| 2026-05-06 10:18 | 24.19716 | 80.71076 | 34789 ft | 546 kts | 134° |
| 2026-05-06 10:18 | 24.14818 | 80.77469 | 34786 ft | 546 kts | 134° |
| 2026-05-06 10:19 | 24.09934 | 80.83834 | 34758 ft | 545 kts | 134° |
| 2026-05-06 10:19 | 24.05057 | 80.90184 | 34774 ft | 545 kts | 134° |
| 2026-05-06 10:20 | 24.00201 | 80.96498 | 34772 ft | 544 kts | 134° |
| 2026-05-06 10:20 | 23.95299 | 81.02862 | 34777 ft | 543 kts | 134° |
| 2026-05-06 10:21 | 23.90467 | 81.09127 | 34771 ft | 543 kts | 134° |
| 2026-05-06 10:21 | 23.85586 | 81.15449 | 34777 ft | 545 kts | 134° |
| 2026-05-06 10:22 | 23.80676 | 81.21800 | 34759 ft | 545 kts | 135° |
| 2026-05-06 10:22 | 23.75779 | 81.28126 | 34775 ft | 546 kts | 135° |
| 2026-05-06 10:23 | 23.70876 | 81.34452 | 34784 ft | 543 kts | 135° |
| 2026-05-06 10:23 | 23.65995 | 81.40739 | 34776 ft | 542 kts | 135° |
| 2026-05-06 10:24 | 23.61115 | 81.47019 | 34783 ft | 543 kts | 135° |
| 2026-05-06 10:24 | 23.56256 | 81.53264 | 34783 ft | 544 kts | 135° |
| 2026-05-06 10:25 | 23.51356 | 81.59554 | 34759 ft | 544 kts | 135° |
| 2026-05-06 10:25 | 23.46466 | 81.65824 | 34794 ft | 543 kts | 135° |
| 2026-05-06 10:26 | 23.41573 | 81.72088 | 34794 ft | 541 kts | 135° |
| 2026-05-06 10:26 | 23.37520 | 81.77272 | 34796 ft | 540 kts | 135° |
| 2026-05-06 10:27 | 23.32642 | 81.83503 | 34795 ft | 541 kts | 135° |
| 2026-05-06 10:27 | 23.27758 | 81.89735 | 34795 ft | 541 kts | 135° |
| 2026-05-06 10:28 | 23.22870 | 81.95963 | 34796 ft | 542 kts | 135° |
| 2026-05-06 10:28 | 23.17980 | 82.02188 | 34786 ft | 541 kts | 135° |
| 2026-05-06 10:29 | 23.13090 | 82.08403 | 34786 ft | 541 kts | 135° |
| 2026-05-06 10:29 | 23.08201 | 82.14610 | 34784 ft | 540 kts | 135° |
| 2026-05-06 10:30 | 23.03422 | 82.20918 | 34798 ft | 541 kts | 135° |
| 2026-05-06 10:30 | 22.98597 | 82.27213 | 34807 ft | 543 kts | 134° |
| 2026-05-06 10:31 | 22.93826 | 82.33583 | 34796 ft | 544 kts | 134° |
| 2026-05-06 10:31 | 22.89018 | 82.39897 | 34796 ft | 542 kts | 134° |
| 2026-05-06 10:32 | 22.84236 | 82.46225 | 34799 ft | 543 kts | 134° |
| 2026-05-06 10:32 | 22.79433 | 82.52545 | 34800 ft | 544 kts | 134° |
| 2026-05-06 10:33 | 22.74627 | 82.58874 | 34797 ft | 544 kts | 134° |
| 2026-05-06 10:33 | 22.69805 | 82.65209 | 34798 ft | 544 kts | 134° |
| 2026-05-06 10:34 | 22.64995 | 82.71525 | 34801 ft | 543 kts | 134° |
| 2026-05-06 10:34 | 22.60212 | 82.77794 | 34798 ft | 542 kts | 134° |
| 2026-05-06 10:35 | 22.55426 | 82.84067 | 34799 ft | 540 kts | 134° |
| 2026-05-06 10:35 | 22.50641 | 82.90322 | 34793 ft | 539 kts | 134° |
| 2026-05-06 10:36 | 22.45860 | 82.96570 | 34795 ft | 539 kts | 134° |
| 2026-05-06 10:36 | 22.41070 | 83.02821 | 34789 ft | 539 kts | 134° |
| 2026-05-06 10:37 | 22.36288 | 83.09053 | 34788 ft | 539 kts | 134° |
| 2026-05-06 10:37 | 22.31488 | 83.15301 | 34791 ft | 540 kts | 134° |
| 2026-05-06 10:38 | 22.26711 | 83.21515 | 34780 ft | 535 kts | 134° |
| 2026-05-06 10:38 | 22.21988 | 83.27645 | 34777 ft | 534 kts | 134° |
| 2026-05-06 10:39 | 22.17268 | 83.33873 | 34779 ft | 537 kts | 131° |
| 2026-05-06 10:39 | 22.12610 | 83.40174 | 34778 ft | 538 kts | 133° |
| 2026-05-06 10:40 | 22.07964 | 83.46503 | 34779 ft | 537 kts | 133° |
| 2026-05-06 10:40 | 22.03175 | 83.52635 | 34771 ft | 536 kts | 133° |
| 2026-05-06 10:41 | 21.98419 | 83.58809 | 34763 ft | 534 kts | 135° |
| 2026-05-06 10:41 | 21.93617 | 83.64910 | 34757 ft | 534 kts | 134° |
| 2026-05-06 10:42 | 21.88849 | 83.71047 | 34763 ft | 534 kts | 134° |
| 2026-05-06 10:42 | 21.84050 | 83.77161 | 34766 ft | 534 kts | 134° |
| 2026-05-06 10:43 | 21.79268 | 83.83281 | 34762 ft | 534 kts | 134° |
| 2026-05-06 10:44 | 21.72069 | 83.92455 | 34767 ft | 534 kts | 134° |
| 2026-05-06 10:44 | 21.67283 | 83.98552 | 34768 ft | 533 kts | 134° |
| 2026-05-06 10:45 | 21.62551 | 84.04699 | 34769 ft | 534 kts | 133° |
| 2026-05-06 10:45 | 21.57819 | 84.10856 | 34772 ft | 534 kts | 134° |
| 2026-05-06 10:46 | 21.53104 | 84.16956 | 34766 ft | 534 kts | 134° |
| 2026-05-06 10:46 | 21.48365 | 84.23109 | 34773 ft | 534 kts | 134° |
| 2026-05-06 10:47 | 21.43615 | 84.29245 | 34771 ft | 534 kts | 134° |
| 2026-05-06 10:47 | 21.38874 | 84.35381 | 34773 ft | 534 kts | 134° |
| 2026-05-06 10:48 | 21.34133 | 84.41497 | 34776 ft | 531 kts | 134° |
| 2026-05-06 10:48 | 21.29406 | 84.47595 | 34768 ft | 532 kts | 134° |
| 2026-05-06 10:49 | 21.24674 | 84.53689 | 34774 ft | 532 kts | 134° |
| 2026-05-06 10:49 | 21.19965 | 84.59750 | 34778 ft | 532 kts | 134° |
| 2026-05-06 10:50 | 21.15202 | 84.65872 | 34769 ft | 531 kts | 134° |
| 2026-05-06 10:50 | 21.10497 | 84.71914 | 34768 ft | 532 kts | 134° |
| 2026-05-06 10:51 | 21.05737 | 84.78018 | 34760 ft | 533 kts | 134° |
| 2026-05-06 10:51 | 21.00997 | 84.84092 | 34764 ft | 530 kts | 134° |
| 2026-05-06 10:52 | 20.96264 | 84.90148 | 34766 ft | 530 kts | 134° |
| 2026-05-06 10:52 | 20.91526 | 84.96207 | 34760 ft | 530 kts | 134° |
| 2026-05-06 10:53 | 20.86781 | 85.02265 | 34760 ft | 531 kts | 134° |
| 2026-05-06 10:53 | 20.82073 | 85.08272 | 34763 ft | 530 kts | 134° |
| 2026-05-06 10:54 | 20.77342 | 85.14301 | 34758 ft | 528 kts | 134° |
| 2026-05-06 10:54 | 20.72614 | 85.20318 | 34759 ft | 528 kts | 134° |
| 2026-05-06 10:55 | 20.67891 | 85.26325 | 34766 ft | 528 kts | 134° |
| 2026-05-06 10:55 | 20.63161 | 85.32331 | 34762 ft | 528 kts | 134° |
| 2026-05-06 10:56 | 20.58435 | 85.38329 | 34768 ft | 528 kts | 134° |
| 2026-05-06 10:56 | 20.53698 | 85.44333 | 34764 ft | 528 kts | 134° |
| 2026-05-06 10:57 | 20.48976 | 85.50313 | 34763 ft | 526 kts | 134° |
| 2026-05-06 10:57 | 20.44259 | 85.56278 | 34762 ft | 526 kts | 134° |
| 2026-05-06 10:58 | 20.39539 | 85.62242 | 34768 ft | 525 kts | 134° |
| 2026-05-06 10:58 | 20.34832 | 85.68183 | 34750 ft | 525 kts | 134° |
| 2026-05-06 10:59 | 20.30147 | 85.74091 | 34742 ft | 525 kts | 134° |
| 2026-05-06 10:59 | 20.25431 | 85.80031 | 34742 ft | 526 kts | 134° |
| 2026-05-06 11:00 | 20.20314 | 85.85514 | 34744 ft | 522 kts | 140° |
| 2026-05-06 11:00 | 20.15087 | 85.90880 | 34755 ft | 522 kts | 140° |
| 2026-05-06 11:01 | 20.09856 | 85.96238 | 34765 ft | 522 kts | 140° |
| 2026-05-06 11:01 | 20.04641 | 86.01578 | 34763 ft | 519 kts | 140° |
| 2026-05-06 11:02 | 19.99446 | 86.06889 | 34772 ft | 518 kts | 140° |
| 2026-05-06 11:02 | 19.94251 | 86.12201 | 34772 ft | 518 kts | 140° |